sensor_id;sensor_type;location;lat;lon;timestamp;pressure;altitude;pressure_sealevel;temperature;humidity
43553;BME280;29153;42.696;23.218;2023-02-13T00:00:56;96181.01;;;-4.20;92.30
43553;BME280;29153;42.696;23.218;2023-02-13T00:03:23;96180.42;;;-4.14;92.08
43553;BME280;29153;42.696;23.218;2023-02-13T00:05:51;96183.49;;;-4.28;92.53
43553;BME280;29153;42.696;23.218;2023-02-13T00:08:18;96184.15;;;-4.26;92.85
43553;BME280;29153;42.696;23.218;2023-02-13T00:10:46;96181.19;;;-4.18;93.10
43553;BME280;29153;42.696;23.218;2023-02-13T00:13:15;96187.05;;;-4.16;93.12
43553;BME280;29153;42.696;23.218;2023-02-13T00:15:42;96185.94;;;-4.13;92.86
43553;BME280;29153;42.696;23.218;2023-02-13T00:18:10;96185.81;;;-4.35;93.01
43553;BME280;29153;42.696;23.218;2023-02-13T00:20:37;96185.70;;;-4.43;93.41
43553;BME280;29153;42.696;23.218;2023-02-13T00:23:05;96180.41;;;-4.41;93.49
43553;BME280;29153;42.696;23.218;2023-02-13T00:25:32;96187.92;;;-4.34;93.55
43553;BME280;29153;42.696;23.218;2023-02-13T00:28:00;96188.92;;;-4.31;93.31
43553;BME280;29153;42.696;23.218;2023-02-13T00:30:27;96185.70;;;-4.43;93.43
43553;BME280;29153;42.696;23.218;2023-02-13T00:32:54;96192.75;;;-4.35;93.64
43553;BME280;29153;42.696;23.218;2023-02-13T00:35:22;96188.40;;;-4.35;93.36
43553;BME280;29153;42.696;23.218;2023-02-13T00:37:49;96192.98;;;-4.42;93.16
43553;BME280;29153;42.696;23.218;2023-02-13T00:40:17;96192.86;;;-4.41;93.57
43553;BME280;29153;42.696;23.218;2023-02-13T00:42:45;96187.92;;;-4.34;93.53
43553;BME280;29153;42.696;23.218;2023-02-13T00:45:12;96183.09;;;-4.33;93.58
43553;BME280;29153;42.696;23.218;2023-02-13T00:47:39;96189.56;;;-4.33;93.67
43553;BME280;29153;42.696;23.218;2023-02-13T00:50:07;96190.22;;;-4.31;93.79
43553;BME280;29153;42.696;23.218;2023-02-13T00:52:35;96198.03;;;-4.27;93.72
43553;BME280;29153;42.696;23.218;2023-02-13T00:55:02;96190.17;;;-4.35;94.07
43553;BME280;29153;42.696;23.218;2023-02-13T00:57:30;96199.38;;;-4.23;94.24
43553;BME280;29153;42.696;23.218;2023-02-13T00:59:58;96202.20;;;-4.30;94.76
43553;BME280;29153;42.696;23.218;2023-02-13T01:02:26;96199.52;;;-4.15;95.14
43553;BME280;29153;42.696;23.218;2023-02-13T01:04:53;96205.45;;;-4.05;95.11
43553;BME280;29153;42.696;23.218;2023-02-13T01:07:20;96209.43;;;-3.97;95.19
43553;BME280;29153;42.696;23.218;2023-02-13T01:09:48;96207.88;;;-3.94;95.35
43553;BME280;29153;42.696;23.218;2023-02-13T01:12:15;96202.63;;;-3.84;95.48
43553;BME280;29153;42.696;23.218;2023-02-13T01:14:43;96205.43;;;-3.82;95.72
43553;BME280;29153;42.696;23.218;2023-02-13T01:17:10;96205.17;;;-3.75;96.31
43553;BME280;29153;42.696;23.218;2023-02-13T01:19:40;96200.61;;;-3.63;96.46
43553;BME280;29153;42.696;23.218;2023-02-13T01:22:08;96197.59;;;-3.58;96.92
43553;BME280;29153;42.696;23.218;2023-02-13T01:24:35;96202.20;;;-3.52;97.43
43553;BME280;29153;42.696;23.218;2023-02-13T01:27:03;96204.19;;;-3.46;97.69
43553;BME280;29153;42.696;23.218;2023-02-13T01:29:30;96205.09;;;-3.38;98.24
43553;BME280;29153;42.696;23.218;2023-02-13T01:31:58;96204.52;;;-3.32;98.49
43553;BME280;29153;42.696;23.218;2023-02-13T01:34:27;96203.50;;;-3.21;98.74
43553;BME280;29153;42.696;23.218;2023-02-13T01:36:54;96204.57;;;-3.10;98.70
43553;BME280;29153;42.696;23.218;2023-02-13T01:39:22;96204.78;;;-3.03;98.55
43553;BME280;29153;42.696;23.218;2023-02-13T01:41:49;96205.66;;;-2.95;98.84
43553;BME280;29153;42.696;23.218;2023-02-13T01:44:54;96211.36;;;-2.95;99.03
43553;BME280;29153;42.696;23.218;2023-02-13T01:50:19;96202.64;;;-2.68;99.66
43553;BME280;29153;42.696;23.218;2023-02-13T01:52:48;96206.42;;;-2.63;99.89
43553;BME280;29153;42.696;23.218;2023-02-13T01:55:13;96207.94;;;-2.52;100.00
43553;BME280;29153;42.696;23.218;2023-02-13T01:57:45;96209.47;;;-2.46;100.00
43553;BME280;29153;42.696;23.218;2023-02-13T02:00:14;96212.59;;;-2.38;100.00
43553;BME280;29153;42.696;23.218;2023-02-13T02:02:46;96219.78;;;-2.32;100.00
43553;BME280;29153;42.696;23.218;2023-02-13T02:05:14;96223.55;;;-2.22;100.00
43553;BME280;29153;42.696;23.218;2023-02-13T02:07:43;96217.28;;;-2.16;100.00
43553;BME280;29153;42.696;23.218;2023-02-13T02:10:16;96216.01;;;-2.12;100.00
43553;BME280;29153;42.696;23.218;2023-02-13T02:12:57;96219.92;;;-2.08;100.00
43553;BME280;29153;42.696;23.218;2023-02-13T02:15:24;96212.03;;;-1.98;100.00
43553;BME280;29153;42.696;23.218;2023-02-13T02:17:52;96201.47;;;-1.97;100.00
43553;BME280;29153;42.696;23.218;2023-02-13T02:29:17;96221.84;;;-1.84;98.94
43553;BME280;29153;42.696;23.218;2023-02-13T02:31:59;96214.66;;;-1.90;98.88
43553;BME280;29153;42.696;23.218;2023-02-13T02:39:42;96213.40;;;-1.82;98.87
43553;BME280;29153;42.696;23.218;2023-02-13T02:44:53;96217.16;;;-1.80;98.64
43553;BME280;29153;42.696;23.218;2023-02-13T02:56:16;96228.83;;;-1.85;98.70
43553;BME280;29153;42.696;23.218;2023-02-13T02:58:44;96237.58;;;-1.86;98.47
43553;BME280;29153;42.696;23.218;2023-02-13T03:01:31;96232.40;;;-1.81;98.41
43553;BME280;29153;42.696;23.218;2023-02-13T03:04:50;96234.45;;;-1.93;98.62
43553;BME280;29153;42.696;23.218;2023-02-13T03:07:34;96235.58;;;-1.92;98.65
43553;BME280;29153;42.696;23.218;2023-02-13T03:10:14;96230.70;;;-1.95;98.98
43553;BME280;29153;42.696;23.218;2023-02-13T03:13:17;96234.90;;;-2.02;99.74
43553;BME280;29153;42.696;23.218;2023-02-13T03:15:53;96237.20;;;-1.95;100.00
43553;BME280;29153;42.696;23.218;2023-02-13T03:18:43;96232.86;;;-1.86;100.00
43553;BME280;29153;42.696;23.218;2023-02-13T03:39:13;96250.28;;;-1.74;100.00
43553;BME280;29153;42.696;23.218;2023-02-13T03:41:44;96240.59;;;-1.64;100.00
43553;BME280;29153;42.696;23.218;2023-02-13T03:44:16;96242.41;;;-1.57;100.00
43553;BME280;29153;42.696;23.218;2023-02-13T03:46:46;96235.44;;;-1.52;100.00
43553;BME280;29153;42.696;23.218;2023-02-13T03:49:20;96233.52;;;-1.50;100.00
43553;BME280;29153;42.696;23.218;2023-02-13T03:52:12;96234.16;;;-1.48;100.00
43553;BME280;29153;42.696;23.218;2023-02-13T03:54:42;96229.32;;;-1.39;100.00
43553;BME280;29153;42.696;23.218;2023-02-13T03:57:29;96233.23;;;-1.35;100.00
43553;BME280;29153;42.696;23.218;2023-02-13T04:00:16;96238.64;;;-1.24;100.00
43553;BME280;29153;42.696;23.218;2023-02-13T04:02:50;96231.61;;;-1.32;100.00
43553;BME280;29153;42.696;23.218;2023-02-13T04:05:21;96229.66;;;-1.38;100.00
43553;BME280;29153;42.696;23.218;2023-02-13T04:07:44;96225.42;;;-1.39;100.00
43553;BME280;29153;42.696;23.218;2023-02-13T04:10:14;96231.59;;;-1.40;100.00
43553;BME280;29153;42.696;23.218;2023-02-13T04:13:05;96231.91;;;-1.43;100.00
43553;BME280;29153;42.696;23.218;2023-02-13T04:15:36;96232.88;;;-1.44;100.00
43553;BME280;29153;42.696;23.218;2023-02-13T04:18:07;96230.92;;;-1.50;100.00
43553;BME280;29153;42.696;23.218;2023-02-13T04:20:33;96237.41;;;-1.50;99.81
43553;BME280;29153;42.696;23.218;2023-02-13T04:23:05;96240.94;;;-1.63;99.53
43553;BME280;29153;42.696;23.218;2023-02-13T04:25:34;96245.94;;;-1.66;99.50
43553;BME280;29153;42.696;23.218;2023-02-13T04:28:03;96241.58;;;-1.61;99.53
43553;BME280;29153;42.696;23.218;2023-02-13T04:30:30;96241.58;;;-1.61;99.44
43553;BME280;29153;42.696;23.218;2023-02-13T04:32:58;96243.99;;;-1.68;99.26
43553;BME280;29153;42.696;23.218;2023-02-13T04:35:26;96240.28;;;-1.61;99.21
43553;BME280;29153;42.696;23.218;2023-02-13T04:37:53;96243.20;;;-1.64;98.83
43553;BME280;29153;42.696;23.218;2023-02-13T04:40:21;96240.41;;;-1.67;98.60
43553;BME280;29153;42.696;23.218;2023-02-13T04:42:48;96238.61;;;-1.70;98.69
43553;BME280;29153;42.696;23.218;2023-02-13T04:45:16;96237.00;;;-1.71;98.63
43553;BME280;29153;42.696;23.218;2023-02-13T04:47:50;96233.09;;;-1.75;98.69
43553;BME280;29153;42.696;23.218;2023-02-13T04:50:14;96237.64;;;-1.69;98.71
43553;BME280;29153;42.696;23.218;2023-02-13T04:52:42;96230.81;;;-1.70;98.61
43553;BME280;29153;42.696;23.218;2023-02-13T04:55:09;96234.73;;;-1.66;98.35
43553;BME280;29153;42.696;23.218;2023-02-13T04:57:37;96238.30;;;-1.71;97.99
43553;BME280;29153;42.696;23.218;2023-02-13T05:00:05;96243.63;;;-1.77;98.05
43553;BME280;29153;42.696;23.218;2023-02-13T05:02:33;96244.13;;;-1.73;98.30
43553;BME280;29153;42.696;23.218;2023-02-13T05:05:01;96247.86;;;-1.76;98.18
43553;BME280;29153;42.696;23.218;2023-02-13T05:07:28;96166.58;;;-2.32;98.34
43553;BME280;29153;42.696;23.218;2023-02-13T05:09:56;96259.10;;;-1.67;98.35
43553;BME280;29153;42.696;23.218;2023-02-13T05:12:23;96260.08;;;-1.64;98.24
43553;BME280;29153;42.696;23.218;2023-02-13T05:14:51;96263.02;;;-1.63;98.17
43553;BME280;29153;42.696;23.218;2023-02-13T05:17:18;96259.39;;;-1.70;98.16
43553;BME280;29153;42.696;23.218;2023-02-13T05:19:45;96260.20;;;-1.70;98.48
43553;BME280;29153;42.696;23.218;2023-02-13T05:22:13;96263.48;;;-1.68;98.71
43553;BME280;29153;42.696;23.218;2023-02-13T05:24:58;96261.23;;;-1.63;98.75
43553;BME280;29153;42.696;23.218;2023-02-13T05:27:26;96267.20;;;-1.66;98.83
43553;BME280;29153;42.696;23.218;2023-02-13T05:29:53;96264.14;;;-1.62;98.81
43553;BME280;29153;42.696;23.218;2023-02-13T05:32:21;96265.13;;;-1.63;98.84
43553;BME280;29153;42.696;23.218;2023-02-13T05:34:48;96269.53;;;-1.59;98.84
43553;BME280;29153;42.696;23.218;2023-02-13T05:37:16;96270.05;;;-1.52;98.74
43553;BME280;29153;42.696;23.218;2023-02-13T05:39:44;96273.83;;;-1.42;98.59
43553;BME280;29153;42.696;23.218;2023-02-13T05:42:11;96272.83;;;-1.41;98.37
43553;BME280;29153;42.696;23.218;2023-02-13T05:44:38;96273.97;;;-1.44;98.52
43553;BME280;29153;42.696;23.218;2023-02-13T05:47:07;96276.73;;;-1.41;98.80
43553;BME280;29153;42.696;23.218;2023-02-13T05:49:36;96280.38;;;-1.26;98.59
43553;BME280;29153;42.696;23.218;2023-02-13T05:52:03;96280.05;;;-1.27;98.28
43553;BME280;29153;42.696;23.218;2023-02-13T05:54:31;96285.26;;;-1.23;98.17
43553;BME280;29153;42.696;23.218;2023-02-13T05:56:59;96293.07;;;-1.19;97.99
43553;BME280;29153;42.696;23.218;2023-02-13T05:59:29;96288.54;;;-1.17;97.94
43553;BME280;29153;42.696;23.218;2023-02-13T06:01:57;96287.24;;;-1.17;97.79
43553;BME280;29153;42.696;23.218;2023-02-13T06:04:25;96288.56;;;-1.09;97.82
43553;BME280;29153;42.696;23.218;2023-02-13T06:06:54;96286.60;;;-1.07;97.59
43553;BME280;29153;42.696;23.218;2023-02-13T06:09:23;96290.50;;;-1.07;97.51
43553;BME280;29153;42.696;23.218;2023-02-13T06:11:50;96297.82;;;-1.06;97.45
43553;BME280;29153;42.696;23.218;2023-02-13T06:14:18;96293.11;;;-1.03;97.53
43553;BME280;29153;42.696;23.218;2023-02-13T06:16:45;96293.64;;;-0.95;97.55
43553;BME280;29153;42.696;23.218;2023-02-13T06:19:13;96304.22;;;-0.88;97.51
43553;BME280;29153;42.696;23.218;2023-02-13T06:21:40;96307.51;;;-0.74;97.22
43553;BME280;29153;42.696;23.218;2023-02-13T06:24:08;96306.02;;;-0.77;96.89
43553;BME280;29153;42.696;23.218;2023-02-13T06:26:36;96302.65;;;-0.65;96.70
43553;BME280;29153;42.696;23.218;2023-02-13T06:29:03;96305.91;;;-0.51;96.27
43553;BME280;29153;42.696;23.218;2023-02-13T06:31:31;96310.63;;;-0.51;95.75
43553;BME280;29153;42.696;23.218;2023-02-13T06:33:58;96309.17;;;-0.41;95.58
43553;BME280;29153;42.696;23.218;2023-02-13T06:36:26;96309.84;;;-0.39;95.35
43553;BME280;29153;42.696;23.218;2023-02-13T06:38:53;96304.94;;;-0.42;95.17
43553;BME280;29153;42.696;23.218;2023-02-13T06:41:21;96312.59;;;-0.40;95.25
43553;BME280;29153;42.696;23.218;2023-02-13T06:43:48;96316.98;;;-0.33;95.34
43553;BME280;29153;42.696;23.218;2023-02-13T06:46:16;96306.57;;;-0.25;95.19
43553;BME280;29153;42.696;23.218;2023-02-13T06:48:43;96317.17;;;-0.14;95.05
43553;BME280;29153;42.696;23.218;2023-02-13T06:51:11;96316.50;;;-0.08;95.15
43553;BME280;29153;42.696;23.218;2023-02-13T06:53:38;96317.02;;;-0.09;94.94
43553;BME280;29153;42.696;23.218;2023-02-13T06:56:06;96316.34;;;0.02;95.01
43553;BME280;29153;42.696;23.218;2023-02-13T06:58:34;96311.61;;;0.05;95.17
43553;BME280;29153;42.696;23.218;2023-02-13T07:01:01;96308.84;;;0.11;95.12
43553;BME280;29153;42.696;23.218;2023-02-13T07:03:29;96310.45;;;0.24;95.25
43553;BME280;29153;42.696;23.218;2023-02-13T07:05:56;96311.59;;;0.33;95.28
43553;BME280;29153;42.696;23.218;2023-02-13T07:08:24;96307.47;;;0.43;94.34
43553;BME280;29153;42.696;23.218;2023-02-13T07:10:51;96306.47;;;0.52;93.92
43553;BME280;29153;42.696;23.218;2023-02-13T07:13:20;96309.71;;;0.62;94.09
43553;BME280;29153;42.696;23.218;2023-02-13T07:15:48;96309.33;;;0.73;93.12
43553;BME280;29153;42.696;23.218;2023-02-13T07:18:15;96307.70;;;0.80;92.02
43553;BME280;29153;42.696;23.218;2023-02-13T07:20:43;96308.98;;;0.84;92.08
43553;BME280;29153;42.696;23.218;2023-02-13T07:23:10;96315.47;;;0.93;92.15
43553;BME280;29153;42.696;23.218;2023-02-13T07:25:51;96315.45;;;0.97;91.11
43553;BME280;29153;42.696;23.218;2023-02-13T07:28:19;96321.75;;;1.10;90.85
43553;BME280;29153;42.696;23.218;2023-02-13T07:30:46;96311.08;;;1.20;89.81
43553;BME280;29153;42.696;23.218;2023-02-13T07:33:14;96320.52;;;1.25;89.34
43553;BME280;29153;42.696;23.218;2023-02-13T07:35:46;96314.52;;;1.20;88.92
43553;BME280;29153;42.696;23.218;2023-02-13T07:38:14;96314.05;;;1.17;88.52
43553;BME280;29153;42.696;23.218;2023-02-13T07:40:41;96322.20;;;1.18;88.83
43553;BME280;29153;42.696;23.218;2023-02-13T07:43:09;96316.54;;;1.10;88.85
43553;BME280;29153;42.696;23.218;2023-02-13T07:45:37;96314.70;;;1.19;88.76
43553;BME280;29153;42.696;23.218;2023-02-13T07:48:04;96320.20;;;1.28;88.52
43553;BME280;29153;42.696;23.218;2023-02-13T07:50:32;96317.56;;;1.32;88.18
43553;BME280;29153;42.696;23.218;2023-02-13T07:53:00;96314.22;;;1.42;87.71
43553;BME280;29153;42.696;23.218;2023-02-13T07:55:29;96313.25;;;1.43;87.91
43553;BME280;29153;42.696;23.218;2023-02-13T07:57:58;96315.75;;;1.59;87.25
43553;BME280;29153;42.696;23.218;2023-02-13T08:00:25;96312.42;;;1.69;87.74
43553;BME280;29153;42.696;23.218;2023-02-13T08:02:52;96314.14;;;1.58;86.40
43553;BME280;29153;42.696;23.218;2023-02-13T08:05:19;96319.98;;;1.60;86.83
43553;BME280;29153;42.696;23.218;2023-02-13T08:07:47;96324.16;;;1.47;86.73
43553;BME280;29153;42.696;23.218;2023-02-13T08:10:15;96319.39;;;1.50;85.72
43553;BME280;29153;42.696;23.218;2023-02-13T08:13:03;96320.48;;;1.60;85.39
43553;BME280;29153;42.696;23.218;2023-02-13T08:15:32;96321.35;;;1.52;86.15
43553;BME280;29153;42.696;23.218;2023-02-13T08:18:00;96318.25;;;1.53;86.07
43553;BME280;29153;42.696;23.218;2023-02-13T08:20:27;96319.37;;;1.58;85.70
43553;BME280;29153;42.696;23.218;2023-02-13T08:23:03;96319.88;;;1.54;86.04
43553;BME280;29153;42.696;23.218;2023-02-13T08:25:31;96313.48;;;1.56;86.06
43553;BME280;29153;42.696;23.218;2023-02-13T08:27:59;96312.29;;;1.67;86.29
43553;BME280;29153;42.696;23.218;2023-02-13T08:30:27;96311.77;;;1.67;86.36
43553;BME280;29153;42.696;23.218;2023-02-13T08:32:54;96317.75;;;1.76;85.21
43553;BME280;29153;42.696;23.218;2023-02-13T08:35:22;96314.88;;;1.71;85.53
43553;BME280;29153;42.696;23.218;2023-02-13T08:37:52;96313.80;;;1.80;85.26
43553;BME280;29153;42.696;23.218;2023-02-13T08:40:20;96316.80;;;1.73;85.25
43553;BME280;29153;42.696;23.218;2023-02-13T08:42:48;96315.62;;;1.75;85.66
43553;BME280;29153;42.696;23.218;2023-02-13T08:45:15;96314.64;;;1.76;85.73
43553;BME280;29153;42.696;23.218;2023-02-13T08:47:43;96312.75;;;1.89;85.38
43553;BME280;29153;42.696;23.218;2023-02-13T08:50:12;96313.56;;;1.90;85.35
43553;BME280;29153;42.696;23.218;2023-02-13T08:52:39;96317.69;;;1.84;85.93
43553;BME280;29153;42.696;23.218;2023-02-13T08:55:07;96318.10;;;1.96;85.52
43553;BME280;29153;42.696;23.218;2023-02-13T08:57:34;96315.95;;;1.99;85.93
43553;BME280;29153;42.696;23.218;2023-02-13T09:00:02;96315.23;;;1.87;85.98
43553;BME280;29153;42.696;23.218;2023-02-13T09:02:30;96315.12;;;1.99;86.43
43553;BME280;29153;42.696;23.218;2023-02-13T09:04:58;96313.46;;;2.02;86.32
43553;BME280;29153;42.696;23.218;2023-02-13T09:07:25;96309.95;;;2.13;86.44
43553;BME280;29153;42.696;23.218;2023-02-13T09:09:52;96314.49;;;2.15;85.27
43553;BME280;29153;42.696;23.218;2023-02-13T09:12:20;96314.98;;;2.15;85.51
43553;BME280;29153;42.696;23.218;2023-02-13T09:14:47;96315.19;;;2.28;85.05
43553;BME280;29153;42.696;23.218;2023-02-13T09:17:15;96325.16;;;2.10;84.00
43553;BME280;29153;42.696;23.218;2023-02-13T09:19:43;96314.61;;;2.22;84.44
43553;BME280;29153;42.696;23.218;2023-02-13T09:22:11;96314.87;;;2.27;85.24
43553;BME280;29153;42.696;23.218;2023-02-13T09:24:40;96316.98;;;2.46;84.66
43553;BME280;29153;42.696;23.218;2023-02-13T09:27:08;96320.52;;;2.68;82.56
43553;BME280;29153;42.696;23.218;2023-02-13T09:29:35;96315.18;;;2.61;81.15
43553;BME280;29153;42.696;23.218;2023-02-13T09:32:04;96319.56;;;2.80;79.66
43553;BME280;29153;42.696;23.218;2023-02-13T09:34:32;96232.46;;;2.31;79.29
43553;BME280;29153;42.696;23.218;2023-02-13T09:36:59;96316.70;;;3.14;79.41
43553;BME280;29153;42.696;23.218;2023-02-13T09:39:27;96318.00;;;3.14;78.64
43553;BME280;29153;42.696;23.218;2023-02-13T09:41:55;96312.60;;;3.01;78.56
43553;BME280;29153;42.696;23.218;2023-02-13T09:44:38;96309.98;;;3.16;79.90
43553;BME280;29153;42.696;23.218;2023-02-13T09:49:53;96311.02;;;3.47;77.41
43553;BME280;29153;42.696;23.218;2023-02-13T09:52:18;96308.04;;;3.60;76.30
43553;BME280;29153;42.696;23.218;2023-02-13T09:54:45;96296.07;;;3.62;77.10
43553;BME280;29153;42.696;23.218;2023-02-13T10:00:07;96301.98;;;3.60;75.78
43553;BME280;29153;42.696;23.218;2023-02-13T10:02:41;96296.80;;;3.56;75.54
43553;BME280;29153;42.696;23.218;2023-02-13T10:16:08;96272.34;;;4.57;73.57
43553;BME280;29153;42.696;23.218;2023-02-13T10:21:32;96264.30;;;4.31;73.16
43553;BME280;29153;42.696;23.218;2023-02-13T10:26:50;96256.02;;;4.17;73.68
43553;BME280;29153;42.696;23.218;2023-02-13T10:29:39;96250.47;;;4.33;73.70
43553;BME280;29153;42.696;23.218;2023-02-13T10:35:29;96238.91;;;4.55;73.65
43553;BME280;29153;42.696;23.218;2023-02-13T10:37:59;96238.51;;;4.58;73.61
43553;BME280;29153;42.696;23.218;2023-02-13T10:40:34;96235.62;;;4.64;72.05
43553;BME280;29153;42.696;23.218;2023-02-13T10:43:06;96236.95;;;4.71;71.81
43553;BME280;29153;42.696;23.218;2023-02-13T10:45:50;96225.20;;;4.84;72.04
43553;BME280;29153;42.696;23.218;2023-02-13T10:51:18;96225.39;;;5.06;69.53
43553;BME280;29153;42.696;23.218;2023-02-13T10:56:30;96219.22;;;5.03;68.97
43553;BME280;29153;42.696;23.218;2023-02-13T11:01:36;96206.95;;;5.23;69.84
43553;BME280;29153;42.696;23.218;2023-02-13T11:04:13;96204.66;;;5.37;69.56
43553;BME280;29153;42.696;23.218;2023-02-13T11:07:09;96200.13;;;5.42;68.49
43553;BME280;29153;42.696;23.218;2023-02-13T11:09:12;96194.27;;;5.46;68.11
43553;BME280;29153;42.696;23.218;2023-02-13T11:11:41;96194.40;;;5.69;68.43
43553;BME280;29153;42.696;23.218;2023-02-13T11:16:51;96197.73;;;5.60;67.14
43553;BME280;29153;42.696;23.218;2023-02-13T11:19:33;96182.45;;;5.79;67.85
43553;BME280;29153;42.696;23.218;2023-02-13T11:22:15;96183.29;;;5.93;66.38
43553;BME280;29153;42.696;23.218;2023-02-13T11:24:56;96185.51;;;5.96;65.34
43553;BME280;29153;42.696;23.218;2023-02-13T11:27:29;96176.39;;;6.05;64.45
43553;BME280;29153;42.696;23.218;2023-02-13T11:29:58;96165.88;;;6.12;64.78
43553;BME280;29153;42.696;23.218;2023-02-13T11:32:32;96163.12;;;5.83;63.60
43553;BME280;29153;42.696;23.218;2023-02-13T11:34:59;96159.21;;;6.03;63.07
43553;BME280;29153;42.696;23.218;2023-02-13T11:37:29;96157.41;;;5.90;64.45
43553;BME280;29153;42.696;23.218;2023-02-13T11:39:59;96152.94;;;5.97;64.71
43553;BME280;29153;42.696;23.218;2023-02-13T11:42:30;96142.06;;;6.22;63.46
43553;BME280;29153;42.696;23.218;2023-02-13T11:45:02;96145.20;;;6.28;62.02
43553;BME280;29153;42.696;23.218;2023-02-13T11:47:38;96133.86;;;6.28;64.52
43553;BME280;29153;42.696;23.218;2023-02-13T11:50:03;96143.66;;;6.36;62.34
43553;BME280;29153;42.696;23.218;2023-02-13T11:52:33;96132.62;;;6.30;61.34
43553;BME280;29153;42.696;23.218;2023-02-13T11:55:05;96112.69;;;6.25;63.49
43553;BME280;29153;42.696;23.218;2023-02-13T11:57:35;96121.94;;;6.19;61.76
43553;BME280;29153;42.696;23.218;2023-02-13T12:00:28;96108.39;;;6.15;60.46
43553;BME280;29153;42.696;23.218;2023-02-13T12:02:53;96111.02;;;6.09;61.40
43553;BME280;29153;42.696;23.218;2023-02-13T12:05:23;96094.77;;;6.03;61.25
43553;BME280;29153;42.696;23.218;2023-02-13T12:07:58;96102.51;;;6.13;61.01
43553;BME280;29153;42.696;23.218;2023-02-13T12:10:27;96095.94;;;6.13;59.99
43553;BME280;29153;42.696;23.218;2023-02-13T12:12:58;96091.67;;;6.19;61.88
43553;BME280;29153;42.696;23.218;2023-02-13T12:15:29;96090.86;;;6.18;60.81
43553;BME280;29153;42.696;23.218;2023-02-13T12:18:25;96095.93;;;6.20;60.98
43553;BME280;29153;42.696;23.218;2023-02-13T12:24:13;96083.63;;;6.29;60.53
43553;BME280;29153;42.696;23.218;2023-02-13T12:43:39;96072.75;;;6.19;58.24
43553;BME280;29153;42.696;23.218;2023-02-13T12:46:05;96072.37;;;6.09;58.15
43553;BME280;29153;42.696;23.218;2023-02-13T12:48:42;96074.25;;;5.89;56.95
43553;BME280;29153;42.696;23.218;2023-02-13T12:54:12;96049.47;;;5.87;59.62
43553;BME280;29153;42.696;23.218;2023-02-13T12:56:44;96052.98;;;5.97;59.94
43553;BME280;29153;42.696;23.218;2023-02-13T12:59:35;96053.06;;;6.06;58.62
43553;BME280;29153;42.696;23.218;2023-02-13T13:16:11;96040.88;;;5.89;59.47
43553;BME280;29153;42.696;23.218;2023-02-13T13:21:22;96032.17;;;5.89;59.20
43553;BME280;29153;42.696;23.218;2023-02-13T13:26:47;96022.30;;;6.07;59.17
43553;BME280;29153;42.696;23.218;2023-02-13T13:29:21;96023.44;;;6.02;59.57
43553;BME280;29153;42.696;23.218;2023-02-13T13:31:55;96025.02;;;6.09;58.61
43553;BME280;29153;42.696;23.218;2023-02-13T13:34:25;96016.23;;;6.06;58.85
43553;BME280;29153;42.696;23.218;2023-02-13T13:42:46;96015.50;;;6.08;58.93
43553;BME280;29153;42.696;23.218;2023-02-13T13:45:21;96024.55;;;6.03;60.10
43553;BME280;29153;42.696;23.218;2023-02-13T13:50:40;96025.98;;;5.92;59.06
43553;BME280;29153;42.696;23.218;2023-02-13T13:53:17;96022.35;;;5.87;59.77
43553;BME280;29153;42.696;23.218;2023-02-13T13:58:42;96005.96;;;5.85;60.08
43553;BME280;29153;42.696;23.218;2023-02-13T14:01:22;96012.95;;;5.75;60.48
43553;BME280;29153;42.696;23.218;2023-02-13T14:06:25;96009.72;;;5.80;59.59
43553;BME280;29153;42.696;23.218;2023-02-13T14:08:57;96009.91;;;5.85;59.89
43553;BME280;29153;42.696;23.218;2023-02-13T14:11:42;96015.78;;;5.74;60.67
43553;BME280;29153;42.696;23.218;2023-02-13T14:14:42;96015.78;;;5.74;60.25
43553;BME280;29153;42.696;23.218;2023-02-13T14:17:01;96004.06;;;5.70;60.02
43553;BME280;29153;42.696;23.218;2023-02-13T14:25:03;95937.67;;;5.23;60.04
43553;BME280;29153;42.696;23.218;2023-02-13T14:27:37;95991.99;;;5.56;59.85
43553;BME280;29153;42.696;23.218;2023-02-13T14:30:05;95995.59;;;5.61;59.13
43553;BME280;29153;42.696;23.218;2023-02-13T14:32:35;95988.55;;;5.55;60.48
43553;BME280;29153;42.696;23.218;2023-02-13T14:37:56;95987.77;;;5.41;60.58
43553;BME280;29153;42.696;23.218;2023-02-13T14:40:51;95991.29;;;5.44;60.95
43553;BME280;29153;42.696;23.218;2023-02-13T14:51:25;95995.06;;;5.20;61.63
43553;BME280;29153;42.696;23.218;2023-02-13T14:53:58;95988.21;;;5.12;62.07
43553;BME280;29153;42.696;23.218;2023-02-13T14:56:27;95987.41;;;4.98;61.80
43553;BME280;29153;42.696;23.218;2023-02-13T14:59:25;95941.27;;;4.61;62.23
43553;BME280;29153;42.696;23.218;2023-02-13T15:04:48;95984.98;;;4.90;62.34
43553;BME280;29153;42.696;23.218;2023-02-13T15:07:27;95987.31;;;4.83;62.29
43553;BME280;29153;42.696;23.218;2023-02-13T15:09:51;95982.85;;;4.77;62.31
43553;BME280;29153;42.696;23.218;2023-02-13T15:12:28;95978.33;;;4.75;62.76
43553;BME280;29153;42.696;23.218;2023-02-13T15:14:56;95983.13;;;4.58;63.35
43553;BME280;29153;42.696;23.218;2023-02-13T15:17:31;95983.41;;;4.46;63.88
43553;BME280;29153;42.696;23.218;2023-02-13T15:20:05;95985.13;;;4.49;63.83
43553;BME280;29153;42.696;23.218;2023-02-13T15:22:32;95980.80;;;4.39;64.30
43553;BME280;29153;42.696;23.218;2023-02-13T15:25:00;95986.23;;;4.31;64.88
43553;BME280;29153;42.696;23.218;2023-02-13T15:27:30;95989.50;;;4.16;65.96
43553;BME280;29153;42.696;23.218;2023-02-13T15:33:00;95982.90;;;4.03;65.90
43553;BME280;29153;42.696;23.218;2023-02-13T15:35:28;95993.23;;;3.87;66.61
43553;BME280;29153;42.696;23.218;2023-02-13T15:37:56;95980.84;;;3.68;66.99
43553;BME280;29153;42.696;23.218;2023-02-13T15:40:27;95983.13;;;3.60;67.46
43553;BME280;29153;42.696;23.218;2023-02-13T15:42:55;95988.30;;;3.47;67.99
43553;BME280;29153;42.696;23.218;2023-02-13T15:45:25;95992.36;;;3.33;68.42
43553;BME280;29153;42.696;23.218;2023-02-13T15:47:54;95992.06;;;3.21;68.89
43553;BME280;29153;42.696;23.218;2023-02-13T15:50:33;95991.78;;;3.09;69.57
43553;BME280;29153;42.696;23.218;2023-02-13T15:53:03;96000.77;;;3.00;69.96
43553;BME280;29153;42.696;23.218;2023-02-13T15:55:33;95997.84;;;2.82;70.73